x

Point Arguello, Ca (ptgc1) Weather Station

1:00pm - Sun 23rd Apr 2017 All times are PDT. -7 hours from GMT.

  • Wind
    30mph, 34mph gusts
  • Air Temp 54°f
  • Sea Pressure 1014.8mb
  • Point Arguello, Ca
  • Point Arguello, Ca

More Historic Weather Station data

Upgrade to MSW Pro to gain access to the past 30 days of data for over 8000 Wavebouys and Weather Stations around the globe.

Join Pro

Comparision Forecast

View Surf forecast
   
Sun 04/23 1:00pm 30 34 mph 1014.8mb 54f
12:00pm 29 31 mph 1014.8mb 54f
11:00am 25 29 mph 1015mb 54f
10:00am 26 29 mph 1014.6mb 53f
9:00am 28 30 mph 1013.9mb 53f
8:00am 26 29 mph 1014mb 53f
7:00am 33 37 mph 1013.6mb 53f
6:00am 31 33 mph 1012.6mb 53f
5:00am 28 31 mph 1012.6mb 53f
4:00am 24 28 mph 1012.9mb 53f
3:00am 22 24 mph 1012.9mb 53f
2:00am 23 25 mph 1013.2mb 54f
1:00am 23 26 mph 1014.1mb 55f
12:00am 25 28 mph 1014.1mb 55f
Sat 04/22 11:00pm 24 28 mph 1014mb 55f
10:00pm 28 31 mph 1014.4mb 56f
9:00pm 25 26 mph 1014.5mb 56f
8:00pm 25 30 mph 1013.4mb 57f
7:00pm 26 31 mph 1013.7mb 56f
6:00pm 25 28 mph 1014.3mb 57f
5:00pm 25 28 mph 1014.1mb 57f
4:00pm 25 29 mph 1014.3mb 58f
3:00pm 25 29 mph 1014.6mb 58f
2:00pm 25 30 mph 1014.6mb 58f
1:00pm 26 30 mph 1014.4mb 58f
12:00pm 26 30 mph 1014.5mb 58f
11:00am 26 29 mph 1014.6mb 57f
10:00am 28 30 mph 1014.2mb 56f
9:00am 28 32 mph 1014.1mb 55f
8:00am 28 33 mph 1014.2mb 55f
7:00am 30 32 mph 1014mb 54f
6:00am 24 26 mph 1013.9mb 54f
5:00am 25 29 mph 1013.7mb 54f
4:00am 26 30 mph 1013.8mb 55f
3:00am 22 28 mph 1013.8mb 55f
2:00am 25 29 mph 1013.8mb 55f
1:00am 23 26 mph 1014.2mb 56f
12:00am 21 23 mph 1014.5mb 56f
Fri 04/21 11:00pm 24 28 mph 1014.2mb 56f
10:00pm 25 28 mph 1014mb 56f
9:00pm 23 25 mph 1013.8mb 58f
8:00pm 22 24 mph 1013.1mb 58f
7:00pm 20 22 mph 1012.9mb 59f
6:00pm 22 25 mph 1013.6mb 58f
5:00pm 22 25 mph 1013.8mb 58f
4:00pm 18 22 mph 1014.2mb 59f
3:00pm 20 25 mph 1014.8mb 61f
2:00pm 18 24 mph 1015.3mb 60f
1:00pm 26 33 mph 1015.4mb 59f
12:00pm 18 22 mph 1015.9mb 58f
11:00am 24 28 mph 1015.9mb 56f
10:00am 32 36 mph 1015.6mb 55f
9:00am 29 31 mph 1015.9mb 56f
8:00am 28 29 mph 1016.5mb 56f
7:00am 25 28 mph 1016.5mb 57f
6:00am 36 37 mph 1016.3mb 56f
5:00am 23 25 mph 1017mb 55f
4:00am 23 25 mph 1017.2mb 55f
3:00am 26 29 mph 1017.7mb 54f
2:00am 25 28 mph 1018.2mb 55f
1:00am 24 26 mph 1018.8mb 55f
12:00am 26 29 mph 1019.2mb 54f
Thu 04/20 11:00pm 23 26 mph 1019.8mb 54f
10:00pm 24 26 mph 1020.2mb 55f
9:00pm 23 28 mph 1020.3mb 55f
8:00pm 25 29 mph 1019.9mb 55f
7:00pm 24 28 mph 1019.9mb 56f
6:00pm 24 28 mph 1020.1mb 57f
5:00pm 29 32 mph 1019.9mb 57f
4:00pm 21 23 mph 1020.7mb 57f
3:00pm 24 26 mph 1021mb 56f
2:00pm 24 25 mph 1021.9mb 55f
1:00pm 23 25 mph 1022.2mb 55f
12:00pm 30 31 mph 1022.5mb 55f
11:00am 25 28 mph 1022.8mb 55f
10:00am 26 29 mph 1022.5mb 54f
9:00am 23 25 mph 1023mb 54f
8:00am 28 30 mph 1022.7mb 54f
7:00am 24 26 mph 1022.6mb 54f
6:00am 26 30 mph 1022.2mb 54f
5:00am 24 28 mph 1022.5mb 54f
4:00am 21 23 mph 1022.5mb 54f
3:00am 26 29 mph 1022.3mb 55f
2:00am 18 22 mph 1022.3mb 54f
1:00am 20 22 mph 1022.5mb 55f
12:00am 18 22 mph 1023mb 55f
Wed 04/19 11:00pm 17 20 mph 1023.1mb 54f
10:00pm 17 20 mph 1023.2mb 55f